createdAt,value
2022-08-26T00:14:36.928Z,18.45
2022-08-26T00:34:36.857Z,18.26
2022-08-26T00:54:36.886Z,18.28
2022-08-26T01:14:36.807Z,18.26
2022-08-26T01:34:36.847Z,18.22
2022-08-26T01:54:36.761Z,18.34
2022-08-26T02:14:36.790Z,18.26
2022-08-26T02:34:37.006Z,17.98
2022-08-26T02:54:36.749Z,18.07
2022-08-26T03:14:36.676Z,17.95
2022-08-26T03:34:36.699Z,18.10
2022-08-26T03:54:36.626Z,18.15
2022-08-26T04:14:36.654Z,18.12
2022-08-26T04:34:36.577Z,18.03
2022-08-26T04:54:36.612Z,18.12
2022-08-26T05:14:36.529Z,18.17
2022-08-26T05:34:36.558Z,18.41
2022-08-26T05:54:36.488Z,18.71
2022-08-26T06:14:36.515Z,19.07
2022-08-26T06:34:36.438Z,19.58
2022-08-26T06:54:36.459Z,20.09
2022-08-26T07:14:36.386Z,20.41
2022-08-26T07:34:36.412Z,20.73
2022-08-26T07:54:36.331Z,21.10
2022-08-26T08:14:36.359Z,21.87
2022-08-26T08:34:36.284Z,23.25
2022-08-26T08:54:36.205Z,24.66
2022-08-26T09:14:36.234Z,25.30
2022-08-26T09:34:36.171Z,25.98
2022-08-26T09:54:36.191Z,26.72
2022-08-26T10:14:36.120Z,26.97
2022-08-26T10:34:36.148Z,26.91
2022-08-26T10:54:36.078Z,26.42
2022-08-26T11:14:36.011Z,26.62
2022-08-26T11:34:36.050Z,26.57
2022-08-26T11:54:35.969Z,26.87
2022-08-26T12:14:35.902Z,27.81
2022-08-26T12:34:35.934Z,28.06
2022-08-26T12:54:35.866Z,28.61
2022-08-26T13:14:35.837Z,28.65
2022-08-26T13:34:35.866Z,27.60
2022-08-26T13:54:35.803Z,27.91
2022-08-26T14:14:35.741Z,28.20
2022-08-26T14:34:35.781Z,27.47
2022-08-26T14:54:35.728Z,26.89
2022-08-26T15:14:35.662Z,26.74
2022-08-26T15:34:35.606Z,26.37
2022-08-26T15:54:35.653Z,26.32
2022-08-26T16:14:35.604Z,26.14
2022-08-26T16:34:35.551Z,26.00
2022-08-26T16:54:35.506Z,25.69
2022-08-26T17:14:35.460Z,25.17
2022-08-26T17:34:35.504Z,24.23
2022-08-26T17:54:35.443Z,23.56
2022-08-26T18:14:35.391Z,22.91
2022-08-26T18:34:35.334Z,22.34
2022-08-26T18:54:35.384Z,22.38
2022-08-26T19:14:35.316Z,22.25
2022-08-26T19:34:35.259Z,21.54
2022-08-26T19:54:35.294Z,21.26
2022-08-26T20:14:35.235Z,20.92
2022-08-26T20:34:35.175Z,20.14
2022-08-26T20:54:35.223Z,19.61
2022-08-26T21:14:35.143Z,19.83
2022-08-26T21:34:35.079Z,19.82
2022-08-26T21:54:35.112Z,19.62
2022-08-26T22:14:35.055Z,19.57
2022-08-26T22:34:35.085Z,19.37
2022-08-26T22:54:35.027Z,19.35
2022-08-26T23:14:34.952Z,19.14
2022-08-26T23:34:35.009Z,18.53
2022-08-26T23:54:34.921Z,18.79
